VLG7WJ LEBL-LEVD
Flight info
| Callsign | VLG7WJ |
|---|---|
| Flight time | N/A |
| Altitude | 31000 |
| Route | LOBAR N725 DIRMU/N0447F330 N725 DGO N976 NEA |
| Aircraft | A320/M-SDE3FGHIRWY/LB1 |
Departure
| Time | 2026-05-05 13:50 |
|---|---|
| Airport | Josep Tarradellas Barcelona-El Prat Airport (LEBL) |
Arrival
| Time | N/A |
|---|---|
| Airport | Valladolid Airport (LEVD) |
| Time | Latitude | Longitude | Altitude | Speed | Heading |
|---|---|---|---|---|---|
| 2026-05-05 13:09 | 41.29243 | 2.08257 | 24 ft | 0 kts | 225° |
| 2026-05-05 13:40 | 41.29246 | 2.08261 | 24 ft | 2 kts | 226° |
| 2026-05-05 13:40 | 41.29257 | 2.08275 | 24 ft | 2 kts | 225° |
| 2026-05-05 13:40 | 41.29267 | 2.08289 | 24 ft | 2 kts | 225° |
| 2026-05-05 13:41 | 41.29278 | 2.08303 | 24 ft | 2 kts | 225° |
| 2026-05-05 13:41 | 41.29288 | 2.08317 | 24 ft | 2 kts | 225° |
| 2026-05-05 13:41 | 41.29298 | 2.08332 | 24 ft | 2 kts | 226° |
| 2026-05-05 13:41 | 41.29309 | 2.08346 | 24 ft | 2 kts | 225° |
| 2026-05-05 13:42 | 41.29319 | 2.08359 | 24 ft | 1 kts | 226° |
| 2026-05-05 13:42 | 41.29326 | 2.08369 | 24 ft | 2 kts | 216° |
| 2026-05-05 13:42 | 41.29339 | 2.08378 | 24 ft | 2 kts | 196° |
| 2026-05-05 13:42 | 41.29354 | 2.08381 | 24 ft | 2 kts | 177° |
| 2026-05-05 13:43 | 41.29369 | 2.08377 | 24 ft | 1 kts | 159° |
| 2026-05-05 13:43 | 41.29374 | 2.08374 | 24 ft | 1 kts | 152° |
| 2026-05-05 13:43 | 41.29376 | 2.08372 | 24 ft | 0 kts | 154° |
| 2026-05-05 13:45 | 41.29367 | 2.08378 | 24 ft | 5 kts | 155° |
| 2026-05-05 13:45 | 41.29304 | 2.08416 | 24 ft | 13 kts | 155° |
| 2026-05-05 13:45 | 41.29214 | 2.08449 | 24 ft | 14 kts | 192° |
| 2026-05-05 13:46 | 41.29116 | 2.08408 | 24 ft | 12 kts | 198° |
| 2026-05-05 13:46 | 41.29023 | 2.08365 | 24 ft | 16 kts | 199° |
| 2026-05-05 13:46 | 41.28904 | 2.08310 | 24 ft | 19 kts | 197° |
| 2026-05-05 13:46 | 41.28770 | 2.08252 | 24 ft | 20 kts | 198° |
| 2026-05-05 13:47 | 41.28667 | 2.08160 | 24 ft | 16 kts | 247° |
| 2026-05-05 13:47 | 41.28619 | 2.08024 | 24 ft | 16 kts | 245° |
| 2026-05-05 13:47 | 41.28571 | 2.07882 | 24 ft | 17 kts | 246° |
| 2026-05-05 13:47 | 41.28522 | 2.07741 | 24 ft | 16 kts | 244° |
| 2026-05-05 13:48 | 41.28484 | 2.07628 | 24 ft | 11 kts | 245° |
| 2026-05-05 13:48 | 41.28449 | 2.07529 | 24 ft | 12 kts | 245° |
| 2026-05-05 13:48 | 41.28389 | 2.07454 | 24 ft | 12 kts | 201° |
| 2026-05-05 13:48 | 41.28344 | 2.07430 | 24 ft | 6 kts | 201° |
| 2026-05-05 13:49 | 41.28297 | 2.07418 | 24 ft | 7 kts | 152° |
| 2026-05-05 13:49 | 41.28249 | 2.07452 | 24 ft | 6 kts | 147° |
| 2026-05-05 13:49 | 41.28256 | 2.07509 | 24 ft | 7 kts | 66° |
| 2026-05-05 13:49 | 41.28303 | 2.07647 | 24 ft | 43 kts | 65° |
| 2026-05-05 13:50 | 41.28536 | 2.08328 | 24 ft | 117 kts | 65° |
| 2026-05-05 13:50 | 41.28963 | 2.09561 | 185 ft | 162 kts | 68° |
| 2026-05-05 13:50 | 41.29465 | 2.10955 | 711 ft | 177 kts | 64° |
| 2026-05-05 13:50 | 41.29810 | 2.12532 | 1320 ft | 186 kts | 93° |
| 2026-05-05 13:51 | 41.29480 | 2.14121 | 2180 ft | 177 kts | 114° |
| 2026-05-05 13:51 | 41.29036 | 2.15632 | 2717 ft | 184 kts | 109° |
| 2026-05-05 13:51 | 41.28688 | 2.17334 | 3114 ft | 200 kts | 103° |
| 2026-05-05 13:51 | 41.28450 | 2.19210 | 3573 ft | 213 kts | 100° |
| 2026-05-05 13:52 | 41.28250 | 2.21195 | 4113 ft | 223 kts | 96° |
| 2026-05-05 13:52 | 41.28241 | 2.23331 | 4627 ft | 237 kts | 92° |
| 2026-05-05 13:52 | 41.28056 | 2.26245 | 5601 ft | 242 kts | 98° |
| 2026-05-05 13:52 | 41.27928 | 2.27717 | 6185 ft | 241 kts | 96° |
| 2026-05-05 13:53 | 41.28114 | 2.29915 | 6862 ft | 249 kts | 64° |
| 2026-05-05 13:53 | 41.29202 | 2.31659 | 7533 ft | 255 kts | 31° |
| 2026-05-05 13:53 | 41.30872 | 2.32443 | 8032 ft | 265 kts | 359° |
| 2026-05-05 13:53 | 41.32785 | 2.32321 | 8469 ft | 281 kts | 351° |
| 2026-05-05 13:54 | 41.34775 | 2.32124 | 9024 ft | 296 kts | 355° |
| 2026-05-05 13:54 | 41.36854 | 2.32117 | 9794 ft | 302 kts | 359° |
| 2026-05-05 13:54 | 41.38955 | 2.32270 | 10500 ft | 310 kts | 1° |
| 2026-05-05 13:54 | 41.41154 | 2.32513 | 10924 ft | 327 kts | 2° |
| 2026-05-05 13:55 | 41.43502 | 2.32874 | 11312 ft | 345 kts | 6° |
| 2026-05-05 13:55 | 41.45878 | 2.33418 | 11904 ft | 354 kts | 7° |
| 2026-05-05 13:55 | 41.48301 | 2.34016 | 12627 ft | 358 kts | 7° |
| 2026-05-05 13:55 | 41.50763 | 2.34629 | 13307 ft | 362 kts | 7° |
| 2026-05-05 13:56 | 41.53252 | 2.35242 | 13976 ft | 367 kts | 6° |
| 2026-05-05 13:56 | 41.55756 | 2.35854 | 14635 ft | 371 kts | 6° |
| 2026-05-05 13:56 | 41.58329 | 2.36475 | 15257 ft | 375 kts | 5° |
| 2026-05-05 13:56 | 41.60887 | 2.36516 | 15807 ft | 370 kts | 343° |
| 2026-05-05 13:57 | 41.63225 | 2.35256 | 16414 ft | 359 kts | 320° |
| 2026-05-05 13:57 | 41.65007 | 2.33009 | 17016 ft | 348 kts | 299° |
| 2026-05-05 13:57 | 41.66051 | 2.30169 | 17618 ft | 338 kts | 279° |
| 2026-05-05 13:57 | 41.66366 | 2.27120 | 18205 ft | 334 kts | 268° |
| 2026-05-05 13:58 | 41.66504 | 2.24001 | 18807 ft | 336 kts | 268° |
| 2026-05-05 13:58 | 41.66650 | 2.20874 | 19412 ft | 338 kts | 268° |
| 2026-05-05 13:58 | 41.66799 | 2.17767 | 20008 ft | 340 kts | 269° |
| 2026-05-05 13:58 | 41.66958 | 2.14612 | 20591 ft | 342 kts | 268° |
| 2026-05-05 13:59 | 41.67281 | 2.08236 | 21721 ft | 345 kts | 268° |
| 2026-05-05 13:59 | 41.67442 | 2.05070 | 22263 ft | 347 kts | 268° |
| 2026-05-05 14:00 | 41.67767 | 1.98614 | 23393 ft | 348 kts | 268° |
| 2026-05-05 14:00 | 41.67928 | 1.95378 | 23876 ft | 351 kts | 267° |
| 2026-05-05 14:00 | 41.68089 | 1.92149 | 24326 ft | 353 kts | 267° |
| 2026-05-05 14:00 | 41.68253 | 1.88840 | 24774 ft | 355 kts | 267° |
| 2026-05-05 14:01 | 41.68412 | 1.85573 | 24888 ft | 354 kts | 267° |
| 2026-05-05 14:01 | 41.68572 | 1.82313 | 24898 ft | 353 kts | 267° |
| 2026-05-05 14:01 | 41.68731 | 1.79037 | 24892 ft | 353 kts | 267° |
| 2026-05-05 14:01 | 41.68886 | 1.75722 | 25085 ft | 359 kts | 267° |
| 2026-05-05 14:02 | 41.69038 | 1.72445 | 25600 ft | 358 kts | 267° |
| 2026-05-05 14:02 | 41.69198 | 1.69093 | 26100 ft | 358 kts | 267° |
| 2026-05-05 14:02 | 41.69351 | 1.65810 | 26479 ft | 360 kts | 267° |
| 2026-05-05 14:02 | 41.69506 | 1.62437 | 26872 ft | 362 kts | 266° |
| 2026-05-05 14:03 | 41.69659 | 1.59049 | 27259 ft | 363 kts | 267° |
| 2026-05-05 14:03 | 41.69814 | 1.55696 | 27641 ft | 365 kts | 266° |
| 2026-05-05 14:03 | 41.69964 | 1.52329 | 28008 ft | 365 kts | 267° |
| 2026-05-05 14:03 | 41.70118 | 1.48935 | 28381 ft | 366 kts | 267° |
| 2026-05-05 14:04 | 41.70271 | 1.45525 | 28717 ft | 368 kts | 267° |
| 2026-05-05 14:04 | 41.70421 | 1.42115 | 29050 ft | 369 kts | 267° |
| 2026-05-05 14:04 | 41.70574 | 1.38687 | 29387 ft | 370 kts | 266° |
| 2026-05-05 14:04 | 41.70727 | 1.35262 | 29662 ft | 372 kts | 266° |
| 2026-05-05 14:05 | 41.70879 | 1.31777 | 29944 ft | 374 kts | 266° |
| 2026-05-05 14:05 | 41.71027 | 1.28300 | 30246 ft | 376 kts | 266° |
| 2026-05-05 14:05 | 41.71178 | 1.24797 | 30547 ft | 377 kts | 266° |
| 2026-05-05 14:05 | 41.71326 | 1.21324 | 30819 ft | 378 kts | 266° |
| 2026-05-05 14:06 | 41.71626 | 1.14251 | 30896 ft | 380 kts | 266° |
| 2026-05-05 14:06 | 41.71921 | 1.07193 | 30899 ft | 381 kts | 266° |
| 2026-05-05 14:07 | 41.72213 | 1.00134 | 30896 ft | 381 kts | 266° |
| 2026-05-05 14:07 | 41.72499 | 0.93036 | 30897 ft | 382 kts | 266° |
| 2026-05-05 14:08 | 41.72780 | 0.85952 | 30896 ft | 381 kts | 266° |
| 2026-05-05 14:08 | 41.73056 | 0.78895 | 30898 ft | 382 kts | 266° |
| 2026-05-05 14:09 | 41.73329 | 0.71827 | 30896 ft | 383 kts | 267° |
| 2026-05-05 14:09 | 41.73602 | 0.64700 | 30900 ft | 383 kts | 267° |
| 2026-05-05 14:10 | 41.73869 | 0.57581 | 30905 ft | 384 kts | 266° |
| 2026-05-05 14:10 | 41.74129 | 0.50472 | 30901 ft | 384 kts | 267° |
| 2026-05-05 14:11 | 41.74387 | 0.43305 | 30901 ft | 386 kts | 267° |
| 2026-05-05 14:11 | 41.74805 | 0.36144 | 30900 ft | 389 kts | 271° |
| 2026-05-05 14:12 | 41.75692 | 0.29141 | 30901 ft | 393 kts | 275° |
| 2026-05-05 14:12 | 41.77121 | 0.21998 | 30899 ft | 397 kts | 280° |
| 2026-05-05 14:13 | 41.78776 | 0.14986 | 30899 ft | 400 kts | 280° |
| 2026-05-05 14:13 | 41.80447 | 0.07863 | 30904 ft | 400 kts | 280° |
| 2026-05-05 14:14 | 41.82100 | 0.00787 | 30906 ft | 401 kts | 281° |
| 2026-05-05 14:14 | 41.83758 | -0.06331 | 30910 ft | 401 kts | 281° |
| 2026-05-05 14:15 | 41.85412 | -0.13441 | 30908 ft | 401 kts | 281° |
| 2026-05-05 14:15 | 41.87069 | -0.20592 | 30911 ft | 401 kts | 281° |
| 2026-05-05 14:16 | 41.88713 | -0.27712 | 30916 ft | 403 kts | 281° |
| 2026-05-05 14:16 | 41.90367 | -0.34905 | 30913 ft | 404 kts | 282° |
| 2026-05-05 14:17 | 41.92017 | -0.42087 | 30915 ft | 404 kts | 282° |
| 2026-05-05 14:17 | 41.93664 | -0.49267 | 30917 ft | 404 kts | 282° |
| 2026-05-05 14:18 | 41.95309 | -0.56465 | 30917 ft | 405 kts | 282° |
| 2026-05-05 14:18 | 41.96963 | -0.63723 | 30912 ft | 406 kts | 282° |
| 2026-05-05 14:19 | 41.98608 | -0.70964 | 30909 ft | 407 kts | 281° |
| 2026-05-05 14:19 | 42.00264 | -0.78282 | 30910 ft | 409 kts | 282° |
| 2026-05-05 14:20 | 42.01910 | -0.85583 | 30908 ft | 409 kts | 282° |
| 2026-05-05 14:20 | 42.03547 | -0.92893 | 30910 ft | 409 kts | 282° |
| 2026-05-05 14:21 | 42.05172 | -1.00173 | 30921 ft | 410 kts | 282° |
| 2026-05-05 14:21 | 42.06807 | -1.07513 | 30920 ft | 410 kts | 282° |
| 2026-05-05 14:22 | 42.08435 | -1.14848 | 30921 ft | 411 kts | 282° |
| 2026-05-05 14:22 | 42.10063 | -1.22209 | 30924 ft | 411 kts | 282° |
| 2026-05-05 14:23 | 42.11427 | -1.28395 | 30923 ft | 411 kts | 282° |